Castalia, Ohio
Current Conditions -  °F | °C
As of 12:13 AM on Tuesday 21 Oct 2014 (Local Time) from KPCW Reporting Station
Haze Haze  
Wind Chill: 55°   Ceiling: 600
Heat Index: 55°   Visibility: 6mi
Dew Point: 54°   Wind: 8mph
Humidity: 94%   Direction: 300°WNW
Pressure: 29.84"   Gusts: NA
Location:  41.4°N, 82.81°W
Report Text: KPCW 210413Z AUTO 30007KT 6SM BR BKN006 OVC070 13/12 A2984 RMK AO2 RAE06
Loading
Personal Weather Stations






























Interactive Weather Map
Tropical Storm Tracking
New forecast layout! Learn more

10-Day Weather Forecast

Advertisements
Track Severe Weather on mobile